Time,TemperatureF,DewpointF,PressureIn,WindDirection,WindDirectionDegrees,WindSpeedMPH,WindSpeedGustMPH,Humidity,HourlyPrecipIn,Conditions,Clouds,dailyrainin,SoftwareType,DateUTC
2013-01-18 00:32:00,34.0,3.0,-100.00,WSW,254,14.0,16.0,26,0.00,,,0.00,,2013-01-18 07:32:00,
2013-01-18 01:42:00,34.0,3.0,-100.00,WSW,249,14.0,17.0,27,0.00,,,0.00,,2013-01-18 08:42:00,
2013-01-18 01:53:00,34.0,3.0,-100.00,WSW,249,14.0,17.0,27,0.00,,,0.00,,2013-01-18 08:53:00,
2013-01-18 02:42:00,36.0,3.0,-100.00,WSW,248,13.0,16.0,25,0.00,,,0.00,,2013-01-18 09:42:00,
2013-01-18 02:52:00,36.0,3.0,-100.00,WSW,248,13.0,16.0,25,0.00,,,0.00,,2013-01-18 09:52:00,
2013-01-18 03:00:00,33.0,5.0,-100.00,WSW,250,11.0,13.0,29,0.00,,,0.00,,2013-01-18 10:00:00,
2013-01-18 03:32:00,33.0,5.0,-100.00,WSW,250,11.0,13.0,29,0.00,,,0.00,,2013-01-18 10:32:00,
2013-01-18 03:42:00,33.0,5.0,-100.00,WSW,250,11.0,13.0,29,0.00,,,0.00,,2013-01-18 10:42:00,
2013-01-18 03:52:00,33.0,5.0,-100.00,WSW,250,11.0,13.0,29,0.00,,,0.00,,2013-01-18 10:52:00,
2013-01-18 04:00:00,33.0,3.0,-100.00,West,264,12.0,15.0,27,0.00,,,0.00,,2013-01-18 11:00:00,
2013-01-18 04:42:00,33.0,3.0,-100.00,West,264,12.0,15.0,27,0.00,,,0.00,,2013-01-18 11:42:00,
2013-01-18 04:53:00,33.0,3.0,-100.00,West,264,12.0,15.0,27,0.00,,,0.00,,2013-01-18 11:53:00,
2013-01-18 05:42:00,37.0,3.0,-100.00,WSW,258,8.0,10.0,23,0.00,,,0.00,,2013-01-18 12:42:00,
2013-01-18 05:53:00,37.0,3.0,-100.00,WSW,258,8.0,10.0,23,0.00,,,0.00,,2013-01-18 12:53:00,
2013-01-18 06:00:00,31.0,6.0,-100.00,SW,227,4.0,5.0,35,0.00,,,0.00,,2013-01-18 13:00:00,
2013-01-18 06:33:00,31.0,6.0,-100.00,SW,227,4.0,5.0,35,0.00,,,0.00,,2013-01-18 13:33:00,
2013-01-18 06:43:00,31.0,6.0,-100.00,SW,227,4.0,5.0,35,0.00,,,0.00,,2013-01-18 13:43:00,
2013-01-18 06:53:00,31.0,6.0,-100.00,SW,227,4.0,5.0,35,0.00,,,0.00,,2013-01-18 13:53:00,
2013-01-18 07:00:00,31.0,4.0,-100.00,SW,231,8.0,10.0,31,0.00,,,0.00,,2013-01-18 14:00:00,
2013-01-18 07:42:00,31.0,4.0,-100.00,SW,231,8.0,10.0,31,0.00,,,0.00,,2013-01-18 14:42:00,
2013-01-18 07:53:00,31.0,4.0,-100.00,SW,231,8.0,10.0,31,0.00,,,0.00,,2013-01-18 14:53:00,
2013-01-18 09:00:00,34.0,6.0,-100.00,WSW,237,7.0,9.0,30,0.00,,,0.00,,2013-01-18 16:00:00,
2013-01-18 09:33:00,34.0,6.0,-100.00,WSW,237,7.0,9.0,30,0.00,,,0.00,,2013-01-18 16:33:00,
2013-01-18 09:42:00,34.0,6.0,-100.00,WSW,237,7.0,9.0,30,0.00,,,0.00,,2013-01-18 16:42:00,
2013-01-18 09:53:00,34.0,6.0,-100.00,WSW,237,7.0,9.0,30,0.00,,,0.00,,2013-01-18 16:53:00,
2013-01-18 10:00:00,36.0,9.0,-100.00,SW,219,5.0,6.0,32,0.01,,,0.00,,2013-01-18 17:00:00,
2013-01-18 10:33:00,36.0,9.0,-100.00,SW,219,5.0,6.0,32,0.01,,,0.00,,2013-01-18 17:33:00,
2013-01-18 10:42:00,36.0,9.0,-100.00,SW,219,5.0,6.0,32,0.01,,,0.00,,2013-01-18 17:42:00,
2013-01-18 10:53:00,36.0,9.0,-100.00,SW,219,5.0,6.0,32,0.01,,,0.00,,2013-01-18 17:53:00,
2013-01-18 11:00:00,40.0,10.0,-100.00,WSW,244,2.0,5.0,28,0.00,,,0.00,,2013-01-18 18:00:00,
2013-01-18 11:43:00,40.0,10.0,-100.00,WSW,244,2.0,5.0,28,0.00,,,0.00,,2013-01-18 18:43:00,
2013-01-18 11:53:00,40.0,10.0,-100.00,WSW,244,2.0,5.0,28,0.00,,,0.00,,2013-01-18 18:53:00,
2013-01-18 12:42:00,46.0,8.0,-100.00,SSW,213,1.0,3.0,21,0.00,,,0.00,,2013-01-18 19:42:00,
2013-01-18 12:53:00,46.0,8.0,-100.00,SSW,213,1.0,3.0,21,0.00,,,0.00,,2013-01-18 19:53:00,
2013-01-18 13:00:00,45.0,6.0,-100.00,ENE,77,3.0,4.0,20,0.00,,,0.00,,2013-01-18 20:00:00,
2013-01-18 13:33:00,45.0,6.0,-100.00,ENE,77,3.0,4.0,20,0.00,,,0.00,,2013-01-18 20:33:00,
2013-01-18 14:42:00,49.0,9.0,-100.00,South,182,2.0,3.0,19,0.00,,,0.00,,2013-01-18 21:42:00,
2013-01-18 14:53:00,49.0,9.0,-100.00,South,182,2.0,3.0,19,0.00,,,0.00,,2013-01-18 21:53:00,
2013-01-18 15:00:00,44.0,8.0,-100.00,WSW,238,0.0,3.0,22,0.00,,,0.00,,2013-01-18 22:00:00,
2013-01-18 15:42:00,44.0,8.0,-100.00,WSW,238,0.0,3.0,22,0.00,,,0.00,,2013-01-18 22:42:00,
2013-01-18 15:53:00,44.0,8.0,-100.00,WSW,238,0.0,3.0,22,0.00,,,0.00,,2013-01-18 22:53:00,
2013-01-18 16:00:00,45.0,4.0,-100.00,SW,236,16.0,21.0,18,0.00,,,0.00,,2013-01-18 23:00:00,
2013-01-18 16:32:00,45.0,4.0,-100.00,SW,236,16.0,21.0,18,0.00,,,0.00,,2013-01-18 23:32:00,
2013-01-18 16:53:00,45.0,4.0,-100.00,SW,236,16.0,21.0,18,0.00,,,0.00,,2013-01-18 23:53:00,
2013-01-18 17:00:00,41.0,6.0,-100.00,West,280,9.0,11.0,23,0.00,,,0.00,,2013-01-19 00:00:00,
2013-01-18 17:42:00,41.0,6.0,-100.00,West,280,9.0,11.0,23,0.00,,,0.00,,2013-01-19 00:42:00,
2013-01-18 17:53:00,41.0,6.0,-100.00,West,280,9.0,11.0,23,0.00,,,0.00,,2013-01-19 00:53:00,
2013-01-18 18:00:00,38.0,4.0,-100.00,WNW,292,11.0,15.0,23,0.00,,,0.00,,2013-01-19 01:00:00,
2013-01-18 18:42:00,38.0,4.0,-100.00,WNW,292,11.0,15.0,23,0.00,,,0.00,,2013-01-19 01:42:00,
2013-01-18 18:52:00,38.0,4.0,-100.00,WNW,292,11.0,15.0,23,0.00,,,0.00,,2013-01-19 01:52:00,
2013-01-18 20:00:00,36.0,4.0,-100.00,West,268,9.0,12.0,26,0.00,,,0.01,,2013-01-19 03:00:00,
2013-01-18 20:43:00,36.0,4.0,-100.00,West,268,9.0,12.0,26,0.00,,,0.01,,2013-01-19 03:43:00,
2013-01-18 20:52:00,36.0,4.0,-100.00,West,268,9.0,12.0,26,0.00,,,0.01,,2013-01-19 03:52:00,
2013-01-18 21:00:00,35.0,5.0,-100.00,WNW,282,8.0,11.0,28,0.00,,,0.01,,2013-01-19 04:00:00,
2013-01-18 21:42:00,35.0,5.0,-100.00,WNW,282,8.0,11.0,28,0.00,,,0.01,,2013-01-19 04:42:00,
2013-01-18 21:53:00,35.0,5.0,-100.00,WNW,282,8.0,11.0,28,0.00,,,0.01,,2013-01-19 04:53:00,
2013-01-18 22:00:00,34.0,5.0,-100.00,SW,236,7.0,9.0,29,0.00,,,0.01,,2013-01-19 05:00:00,
2013-01-18 22:32:00,34.0,5.0,-100.00,SW,236,7.0,9.0,29,0.00,,,0.01,,2013-01-19 05:32:00,
2013-01-18 22:42:00,34.0,5.0,-100.00,SW,236,7.0,9.0,29,0.00,,,0.01,,2013-01-19 05:42:00,
2013-01-18 22:53:00,34.0,5.0,-100.00,SW,236,7.0,9.0,29,0.00,,,0.01,,2013-01-19 05:53:00,
2013-01-18 23:00:00,34.0,6.0,-100.00,WSW,258,8.0,13.0,29,0.00,,,0.01,,2013-01-19 06:00:00,
2013-01-18 23:43:00,34.0,6.0,-100.00,WSW,258,8.0,13.0,29,0.00,,,0.01,,2013-01-19 06:43:00,
2013-01-18 23:53:00,34.0,6.0,-100.00,WSW,258,8.0,13.0,29,0.00,,,0.01,,2013-01-19 06:53:00,